Time;durP1;ratioP1;P1;durP2;ratioP2;P2;SDS_P1;SDS_P2;PMS_P1;PMS_P2;Temp;Humidity;BMP_temperature;BMP_pressure;BME280_temperature;BME280_humidity;BME280_pressure;Samples;Min_cycle;Max_cycle;Signal;HPM_P1;HPM_P2
2022/12/05 00:01:37;;;;;;;101.95;44.78;;;2.00;76.50;;;;;;4964546;28;115238;-79
2022/12/05 00:04:07;;;;;;;106.65;42.67;;;1.90;76.50;;;;;;4965120;28;114729;-79
2022/12/05 00:06:35;;;;;;;97.68;41.72;;;1.80;76.60;;;;;;4965633;28;114946;-79
2022/12/05 00:09:03;;;;;;;89.10;38.22;;;1.80;76.70;;;;;;4963759;28;115024;-78
2022/12/05 00:11:33;;;;;;;93.47;40.97;;;1.80;76.80;;;;;;4964052;28;115604;-80
2022/12/05 00:14:03;;;;;;;93.70;40.38;;;1.70;76.80;;;;;;4964677;28;114504;-78
2022/12/05 00:16:31;;;;;;;92.95;37.10;;;1.70;76.90;;;;;;4964700;28;114635;-79
2022/12/05 00:18:59;;;;;;;82.70;35.80;;;1.70;76.90;;;;;;4964036;28;115240;-79
2022/12/05 00:21:29;;;;;;;91.25;39.83;;;1.60;77.00;;;;;;4964162;28;114661;-78
2022/12/05 00:23:57;;;;;;;91.95;41.22;;;1.60;77.00;;;;;;4965255;28;114304;-78
2022/12/05 00:26:24;;;;;;;98.68;40.35;;;1.60;77.10;;;;;;4948134;28;114561;-78
2022/12/05 00:28:52;;;;;;;91.85;38.47;;;1.50;77.20;;;;;;4964015;28;115121;-78
2022/12/05 00:31:21;;;;;;;87.35;38.42;;;1.50;77.30;;;;;;4948426;28;114912;-79
2022/12/05 00:33:48;;;;;;;83.90;36.08;;;1.50;77.30;;;;;;4983423;28;115560;-79
2022/12/05 00:36:19;;;;;;;86.10;37.83;;;1.40;77.40;;;;;;4984569;28;114413;-79
2022/12/05 00:38:46;;;;;;;88.63;38.30;;;1.50;77.50;;;;;;4967283;28;115063;-78
2022/12/05 00:41:17;;;;;;;88.13;40.08;;;1.50;77.50;;;;;;4967427;28;115399;-79
2022/12/05 00:43:45;;;;;;;83.57;35.47;;;1.40;77.50;;;;;;4983490;28;114700;-79
2022/12/05 00:46:20;;;;;;;86.47;39.92;;;1.40;77.60;;;;;;4967545;28;114389;-79
2022/12/05 00:48:47;;;;;;;85.88;36.30;;;1.40;77.70;;;;;;4959642;28;117787;-80
2022/12/05 00:51:28;;;;;;;85.30;37.20;;;1.40;77.80;;;;;;4931103;28;115094;-80
2022/12/05 00:54:00;;;;;;;83.20;36.65;;;1.40;78.00;;;;;;4948865;28;114490;-79
2022/12/05 00:56:28;;;;;;;92.90;40.38;;;1.30;78.10;;;;;;4948536;28;114576;-80
2022/12/05 00:58:56;;;;;;;81.00;37.50;;;1.40;78.20;;;;;;4955971;28;115152;-79
2022/12/05 01:01:32;;;;;;;88.18;37.15;;;1.60;78.00;;;;;;4984070;28;114722;-79
2022/12/05 01:04:03;;;;;;;91.90;38.85;;;1.70;78.00;;;;;;4984425;28;115505;-79
2022/12/05 01:06:30;;;;;;;85.43;36.92;;;1.70;77.70;;;;;;4967141;28;114302;-79
2022/12/05 01:08:57;;;;;;;90.22;40.22;;;1.60;77.60;;;;;;4982696;28;115064;-79
2022/12/05 01:11:25;;;;;;;94.20;38.60;;;1.70;77.60;;;;;;4959831;28;116083;-78
2022/12/05 01:13:52;;;;;;;87.25;38.42;;;1.60;77.70;;;;;;4963641;28;116461;-79
2022/12/05 01:16:29;;;;;;;91.60;40.70;;;1.70;77.70;;;;;;4975988;28;115712;-78
2022/12/05 01:18:57;;;;;;;93.28;39.30;;;1.80;77.70;;;;;;4982397;28;115077;-79
2022/12/05 01:21:24;;;;;;;92.68;41.17;;;1.90;77.60;;;;;;4984124;28;114802;-78
2022/12/05 01:23:51;;;;;;;94.10;38.90;;;1.90;77.50;;;;;;4961266;28;116981;-78
2022/12/05 01:26:20;;;;;;;90.75;41.97;;;2.10;77.40;;;;;;4946533;28;114627;-78
2022/12/05 01:28:47;;;;;;;89.88;39.42;;;2.10;77.20;;;;;;4963293;28;115675;-78
2022/12/05 01:31:23;;;;;;;88.30;40.55;;;2.10;76.90;;;;;;4962620;28;114716;-79
2022/12/05 01:33:54;;;;;;;90.47;41.53;;;2.10;77.10;;;;;;4963693;28;114513;-79
2022/12/05 01:36:22;;;;;;;90.72;41.00;;;2.10;77.10;;;;;;4931968;28;114383;-79
2022/12/05 01:38:49;;;;;;;86.43;39.17;;;2.10;77.10;;;;;;4963606;28;114953;-80
2022/12/05 01:41:24;;;;;;;85.93;39.40;;;2.10;76.90;;;;;;4962232;28;114842;-80
2022/12/05 01:44:01;;;;;;;76.95;36.47;;;2.10;76.90;;;;;;4983099;28;114466;-79
2022/12/05 01:46:31;;;;;;;82.20;35.63;;;2.10;76.90;;;;;;4983451;28;116434;-79
2022/12/05 01:49:23;;;;;;;79.63;35.42;;;2.10;76.90;;;;;;4965217;28;118029;-82
2022/12/05 01:51:56;;;;;;;72.03;33.03;;;2.10;76.80;;;;;;4982138;28;115073;-79
2022/12/05 01:54:24;;;;;;;77.20;34.65;;;2.10;76.70;;;;;;4981890;28;114804;-79
2022/12/05 01:56:58;;;;;;;86.22;37.78;;;2.10;76.60;;;;;;4966298;28;114810;-78
2022/12/05 01:59:29;;;;;;;81.85;37.35;;;2.10;76.70;;;;;;4965708;28;115096;-79
2022/12/05 02:01:56;;;;;;;79.30;37.08;;;2.10;76.70;;;;;;4949005;28;117928;-79
2022/12/05 02:04:23;;;;;;;78.75;36.83;;;2.10;76.60;;;;;;4982701;28;114420;-78
2022/12/05 02:06:50;;;;;;;79.70;35.42;;;2.00;76.60;;;;;;4966181;28;114936;-78
2022/12/05 02:09:17;;;;;;;77.70;37.70;;;1.90;76.50;;;;;;4981425;28;115355;-78
2022/12/05 02:11:51;;;;;;;76.60;36.67;;;1.80;76.80;;;;;;4982176;28;115322;-79
2022/12/05 02:14:21;;;;;;;82.57;36.25;;;1.90;77.10;;;;;;4951008;28;114553;-78
2022/12/05 02:16:52;;;;;;;73.22;34.90;;;1.90;77.10;;;;;;4984697;28;114335;-78
2022/12/05 02:20:09;;;;;;;71.63;34.85;;;1.90;77.00;;;;;;4982149;28;115137;-77
2022/12/05 02:22:45;;;;;;;81.20;36.33;;;2.10;76.90;;;;;;4982277;28;114735;-78
2022/12/05 02:25:34;;;;;;;84.80;36.92;;;2.10;76.80;;;;;;4980156;28;114950;-78
2022/12/05 02:28:25;;;;;;;81.18;35.60;;;2.10;76.70;;;;;;4963726;28;114653;-78
2022/12/05 02:31:33;;;;;;;76.20;34.40;;;2.10;76.60;;;;;;4963602;28;116330;-78
2022/12/05 02:34:17;;;;;;;79.35;36.58;;;2.10;76.40;;;;;;4963832;28;114748;-78
2022/12/05 02:36:49;;;;;;;81.90;36.13;;;2.00;76.40;;;;;;4963644;28;114559;-78
2022/12/05 02:39:43;;;;;;;86.18;35.33;;;2.10;76.40;;;;;;4947509;28;118924;-77
2022/12/05 02:42:51;;;;;;;75.70;33.75;;;2.00;76.40;;;;;;4962349;28;116279;-79
2022/12/05 02:45:18;;;;;;;86.78;35.67;;;2.10;76.40;;;;;;4946175;28;114780;-77
2022/12/05 02:47:50;;;;;;;78.70;35.33;;;2.00;76.30;;;;;;4946599;28;115549;-78
2022/12/05 02:50:22;;;;;;;83.63;37.92;;;2.00;76.30;;;;;;4963500;28;114340;-79
2022/12/05 02:52:50;;;;;;;90.20;35.80;;;2.00;76.20;;;;;;4946441;28;116173;-78
2022/12/05 02:55:17;;;;;;;73.82;33.33;;;2.00;76.20;;;;;;4927822;28;114806;-78
2022/12/05 02:57:48;;;;;;;81.47;35.35;;;2.00;76.10;;;;;;4949105;28;114356;-79
2022/12/05 03:00:16;;;;;;;80.55;35.88;;;1.90;76.30;;;;;;4950680;28;114384;-77
2022/12/05 03:02:43;;;;;;;83.32;36.72;;;1.90;76.50;;;;;;4965866;28;119569;-78
2022/12/05 03:05:17;;;;;;;73.28;34.30;;;1.80;76.40;;;;;;4965873;28;114717;-78
2022/12/05 03:07:46;;;;;;;78.88;32.97;;;1.70;76.70;;;;;;4966480;28;114465;-79
2022/12/05 03:10:13;;;;;;;75.30;34.17;;;1.80;76.80;;;;;;4948891;28;118428;-79
2022/12/05 03:12:46;;;;;;;75.45;33.72;;;1.80;76.80;;;;;;4965685;28;115249;-79
2022/12/05 03:15:21;;;;;;;70.97;32.23;;;1.90;76.80;;;;;;4966513;28;114741;-79
2022/12/05 03:18:05;;;;;;;75.35;35.15;;;2.00;76.70;;;;;;4965919;28;114311;-80
2022/12/05 03:20:35;;;;;;;;;;;2.00;76.60;;;;;;4966530;28;114506;-80
2022/12/05 03:23:12;;;;;;;74.60;34.05;;;2.00;76.40;;;;;;4947907;28;115011;-80
2022/12/05 03:26:11;;;;;;;83.75;36.63;;;2.00;76.50;;;;;;4948847;28;114880;-80
2022/12/05 03:29:13;;;;;;;75.05;32.92;;;2.10;76.40;;;;;;4952271;28;114301;-79
2022/12/05 03:31:53;;;;;;;76.15;31.92;;;2.10;76.40;;;;;;4949956;28;114593;-79
2022/12/05 03:35:14;;;;;;;84.93;35.63;;;2.10;76.30;;;;;;4965069;28;115157;-79
2022/12/05 03:38:02;;;;;;;78.85;35.45;;;2.10;76.10;;;;;;4932635;28;118345;-79
2022/12/05 03:41:06;;;;;;;80.20;34.85;;;1.90;76.20;;;;;;4965683;28;114480;-79
2022/12/05 03:43:49;;;;;;;78.85;36.53;;;1.70;76.50;;;;;;4913912;28;114741;-78
2022/12/05 03:46:26;;;;;;;74.80;33.88;;;1.60;76.80;;;;;;4966191;28;119071;-78
2022/12/05 03:49:07;;;;;;;69.20;32.38;;;1.60;77.00;;;;;;4966021;28;114637;-79
2022/12/05 03:51:38;;;;;;;78.75;34.80;;;1.50;76.90;;;;;;4966136;28;114405;-78
2022/12/05 03:54:17;;;;;;;78.03;34.95;;;1.50;77.00;;;;;;4930750;28;114692;-78
2022/12/05 03:57:07;;;;;;;75.63;33.78;;;1.60;77.20;;;;;;4964021;28;116321;-79
2022/12/05 03:59:37;;;;;;;76.90;34.25;;;1.60;77.00;;;;;;4965657;28;114557;-79
2022/12/05 04:02:09;;;;;;;73.10;34.50;;;1.60;77.00;;;;;;4965635;28;114421;-78
2022/12/05 04:04:43;;;;;;;71.20;34.85;;;1.50;77.10;;;;;;4946585;28;114408;-78
2022/12/05 04:07:10;;;;;;;77.50;34.80;;;1.60;77.20;;;;;;4978011;28;115182;-79
2022/12/05 04:09:52;;;;;;;65.05;32.20;;;1.60;77.10;;;;;;4940225;28;116623;-79
2022/12/05 04:12:27;;;;;;;74.40;34.58;;;1.70;77.00;;;;;;4965869;28;114759;-79
2022/12/05 04:14:58;;;;;;;70.60;32.83;;;1.70;77.00;;;;;;4941243;28;114723;-79
2022/12/05 04:17:45;;;;;;;69.15;32.35;;;1.70;77.00;;;;;;4929248;28;115507;-79
2022/12/05 04:23:16;;;;;;;66.13;32.22;;;1.80;76.90;;;;;;4947578;28;114499;-79
2022/12/05 04:26:11;;;;;;;66.13;32.95;;;1.70;77.00;;;;;;4965395;28;114685;-79
2022/12/05 04:28:42;;;;;;;;;;;1.80;76.90;;;;;;4931753;28;115134;-79
2022/12/05 04:31:30;;;;;;;71.35;32.28;;;1.80;76.70;;;;;;4964646;28;114707;-79
2022/12/05 04:34:01;;;;;;;67.32;32.53;;;1.80;76.70;;;;;;4964831;28;114367;-79
2022/12/05 04:36:39;;;;;;;73.43;33.60;;;1.80;76.60;;;;;;4929731;28;114751;-79
2022/12/05 04:39:36;;;;;;;76.72;37.33;;;1.80;76.60;;;;;;4963515;28;115143;-78
2022/12/05 04:42:11;;;;;;;75.93;34.90;;;1.90;76.40;;;;;;4964223;28;114702;-79
2022/12/05 04:44:49;;;;;;;74.78;34.67;;;1.80;76.40;;;;;;4932650;28;114392;-78
2022/12/05 04:47:17;;;;;;;70.30;34.08;;;1.70;76.30;;;;;;4964977;28;114411;-78
2022/12/05 04:49:45;;;;;;;81.43;37.03;;;1.80;76.30;;;;;;4963896;28;115017;-78
2022/12/05 04:52:19;;;;;;;68.25;32.85;;;1.80;76.30;;;;;;4949488;28;114680;-78
2022/12/05 04:55:16;;;;;;;76.15;35.53;;;1.80;76.10;;;;;;4949041;28;114491;-78
2022/12/05 04:58:04;;;;;;;72.72;33.35;;;1.70;75.90;;;;;;4948993;28;114806;-79
2022/12/05 05:00:34;;;;;;;75.03;34.28;;;1.60;76.30;;;;;;4961130;28;116013;-78
2022/12/05 05:03:28;;;;;;;78.07;34.55;;;1.70;76.30;;;;;;4951362;28;114609;-79
2022/12/05 05:05:56;;;;;;;74.55;34.15;;;1.70;76.30;;;;;;4969525;28;114943;-79
2022/12/05 05:08:27;;;;;;;73.50;34.38;;;1.70;76.20;;;;;;4968337;28;114466;-80
2022/12/05 05:11:09;;;;;;;71.95;33.53;;;1.70;76.20;;;;;;4967284;28;116417;-79
2022/12/05 05:13:36;;;;;;;70.82;34.70;;;1.70;76.20;;;;;;4983369;28;115006;-79
2022/12/05 05:16:04;;;;;;;70.28;32.88;;;1.70;76.20;;;;;;4985489;28;114579;-79
2022/12/05 05:18:31;;;;;;;72.68;36.22;;;1.70;76.30;;;;;;4985658;28;114379;-78
2022/12/05 05:20:58;;;;;;;76.32;36.08;;;1.80;76.40;;;;;;4950243;28;115203;-78
2022/12/05 05:23:25;;;;;;;71.68;35.50;;;1.70;76.30;;;;;;4977595;28;118109;-79
2022/12/05 05:25:53;;;;;;;66.88;33.45;;;1.80;76.30;;;;;;4965186;28;114437;-80
2022/12/05 05:28:21;;;;;;;66.45;33.70;;;1.80;76.30;;;;;;4964372;28;114409;-80
2022/12/05 05:30:48;;;;;;;71.57;35.13;;;1.90;76.20;;;;;;4964031;28;115588;-80
2022/12/05 05:33:15;;;;;;;73.53;34.47;;;1.90;76.30;;;;;;4967055;28;114698;-80
2022/12/05 05:35:43;;;;;;;74.50;36.65;;;1.90;76.20;;;;;;4966370;28;114445;-80
2022/12/05 05:38:10;;;;;;;69.95;35.72;;;1.90;76.10;;;;;;4964693;28;114497;-80
2022/12/05 05:40:37;;;;;;;79.93;37.42;;;1.90;76.20;;;;;;4963649;28;115087;-79
2022/12/05 05:43:04;;;;;;;71.47;36.22;;;2.00;76.10;;;;;;4965033;28;115740;-80
2022/12/05 05:45:31;;;;;;;74.75;35.58;;;2.00;76.00;;;;;;4964855;28;115218;-79
2022/12/05 05:47:58;;;;;;;75.88;38.38;;;1.90;75.90;;;;;;4964530;28;114494;-79
2022/12/05 05:50:25;;;;;;;75.93;37.30;;;1.90;75.90;;;;;;4962517;28;115183;-79
2022/12/05 05:52:53;;;;;;;76.93;36.65;;;1.90;75.80;;;;;;4964283;28;114558;-79
2022/12/05 05:55:20;;;;;;;77.35;38.17;;;1.90;75.90;;;;;;4964802;28;114470;-79
2022/12/05 05:57:47;;;;;;;84.28;39.83;;;1.90;75.90;;;;;;4931566;28;114441;-79
2022/12/05 06:00:15;;;;;;;86.50;38.22;;;1.90;75.80;;;;;;4964192;28;115278;-79
2022/12/05 06:02:42;;;;;;;92.10;39.72;;;1.90;75.70;;;;;;4962972;28;114435;-79
2022/12/05 06:05:09;;;;;;;83.60;38.03;;;1.90;75.50;;;;;;4982731;28;114427;-79
2022/12/05 06:07:36;;;;;;;96.50;42.67;;;1.90;75.50;;;;;;4984162;28;114491;-78
2022/12/05 06:10:04;;;;;;;95.28;41.00;;;1.90;75.40;;;;;;4982927;28;115137;-78
2022/12/05 06:12:33;;;;;;;91.15;42.08;;;1.80;75.30;;;;;;4950632;28;114756;-79
2022/12/05 06:15:00;;;;;;;115.03;46.95;;;1.80;75.30;;;;;;4983007;28;114369;-77
2022/12/05 06:17:27;;;;;;;116.68;48.53;;;1.80;75.40;;;;;;4984533;28;114548;-77
2022/12/05 06:19:54;;;;;;;110.10;47.03;;;1.80;75.30;;;;;;4984119;28;115273;-80
2022/12/05 06:22:22;;;;;;;100.47;44.65;;;1.80;75.20;;;;;;4983887;28;115153;-78
2022/12/05 06:24:49;;;;;;;87.00;40.20;;;1.70;75.10;;;;;;4976844;28;114678;-80
2022/12/05 06:27:16;;;;;;;90.03;40.92;;;1.60;75.20;;;;;;4964185;28;114947;-79
2022/12/05 06:29:43;;;;;;;90.38;41.13;;;1.50;75.50;;;;;;4963344;28;115069;-79
2022/12/05 06:32:11;;;;;;;93.28;41.05;;;1.50;75.60;;;;;;4966218;28;114497;-78
2022/12/05 06:34:43;;;;;;;85.68;39.75;;;1.50;75.60;;;;;;4967601;28;119100;-78
2022/12/05 06:37:22;;;;;;;80.57;38.30;;;1.60;75.70;;;;;;4975893;28;114429;-78
2022/12/05 06:39:51;;;;;;;75.72;36.33;;;1.60;75.80;;;;;;4963530;28;115159;-79
2022/12/05 06:42:21;;;;;;;94.60;43.55;;;1.60;76.00;;;;;;4934450;28;114641;-79
2022/12/05 06:44:51;;;;;;;94.90;41.95;;;1.60;75.90;;;;;;4946336;28;114453;-79
2022/12/05 06:47:18;;;;;;;87.72;43.25;;;1.60;75.80;;;;;;4967362;28;114323;-79
2022/12/05 06:49:45;;;;;;;85.80;37.70;;;1.60;75.70;;;;;;4966438;28;115586;-79
2022/12/05 06:52:12;;;;;;;92.68;40.85;;;1.60;75.60;;;;;;4965527;28;115102;-79
2022/12/05 06:54:40;;;;;;;80.40;36.72;;;1.60;75.60;;;;;;4967978;28;114646;-79
2022/12/05 06:57:08;;;;;;;75.35;36.45;;;1.60;75.60;;;;;;4934849;28;114405;-79
2022/12/05 06:59:35;;;;;;;84.75;37.40;;;1.60;75.60;;;;;;4966893;28;115373;-80
2022/12/05 07:02:06;;;;;;;83.00;38.58;;;1.60;75.70;;;;;;4966284;28;114544;-79
2022/12/05 07:04:33;;;;;;;78.68;36.00;;;1.60;75.70;;;;;;4955342;28;115661;-79
2022/12/05 07:07:01;;;;;;;83.10;36.80;;;1.60;75.50;;;;;;4965067;28;114746;-80
2022/12/05 07:12:16;;;;;;;75.70;35.58;;;1.60;75.60;;;;;;4962804;28;114569;-80
2022/12/05 07:14:43;;;;;;;79.60;37.17;;;1.60;75.80;;;;;;4960438;28;116904;-80
2022/12/05 07:17:14;;;;;;;78.75;36.75;;;1.60;75.80;;;;;;4964534;28;114605;-79
2022/12/05 07:19:41;;;;;;;84.05;38.28;;;1.70;75.80;;;;;;4966554;28;115173;-80
2022/12/05 07:22:08;;;;;;;84.68;39.88;;;1.80;75.80;;;;;;4965495;28;114807;-80
2022/12/05 07:24:41;;;;;;;85.00;40.22;;;1.80;75.80;;;;;;4966431;28;114514;-81
2022/12/05 07:27:09;;;;;;;83.32;38.97;;;1.80;75.60;;;;;;4966206;28;114387;-79
2022/12/05 07:29:36;;;;;;;81.65;39.80;;;1.90;75.60;;;;;;4965831;28;115104;-80
2022/12/05 07:32:03;;;;;;;83.28;38.50;;;1.90;75.50;;;;;;4948825;28;114685;-80
2022/12/05 07:34:30;;;;;;;82.43;40.13;;;1.90;75.50;;;;;;4965594;28;114300;-80
2022/12/05 07:36:59;;;;;;;92.93;43.83;;;2.00;75.50;;;;;;4966078;28;114443;-79
2022/12/05 07:39:26;;;;;;;99.28;45.78;;;2.00;75.50;;;;;;4948361;28;116297;-81
2022/12/05 07:41:53;;;;;;;85.25;41.05;;;2.00;75.70;;;;;;4963962;28;115322;-80
2022/12/05 07:44:20;;;;;;;96.35;46.00;;;2.10;75.80;;;;;;4964959;28;114606;-81
2022/12/05 07:46:48;;;;;;;93.68;45.40;;;2.10;75.80;;;;;;4963435;28;115271;-80
2022/12/05 07:49:18;;;;;;;85.25;43.35;;;2.20;76.00;;;;;;4964159;28;114984;-81
2022/12/05 07:51:50;;;;;;;;;;;2.20;76.20;;;;;;4964927;28;114820;-81
2022/12/05 07:54:17;;;;;;;90.15;43.17;;;2.20;76.00;;;;;;4965348;28;114341;-80
2022/12/05 07:56:44;;;;;;;85.75;42.72;;;2.30;75.80;;;;;;4966688;28;114501;-79
2022/12/05 07:59:14;;;;;;;90.15;46.35;;;2.30;75.70;;;;;;4965675;28;115116;-79
2022/12/05 08:01:41;;;;;;;75.35;40.25;;;2.30;75.60;;;;;;4949518;28;114597;-79
2022/12/05 08:04:08;;;;;;;91.40;43.30;;;2.30;75.50;;;;;;4966806;28;114348;-79
2022/12/05 08:06:41;;;;;;;89.85;47.15;;;2.30;75.50;;;;;;4966368;28;114691;-79
2022/12/05 08:09:08;;;;;;;83.65;44.78;;;2.40;75.50;;;;;;4946413;28;115044;-80
2022/12/05 08:11:36;;;;;;;97.07;47.13;;;2.40;75.60;;;;;;4959393;28;114635;-79
2022/12/05 08:14:04;;;;;;;93.30;48.10;;;2.60;75.60;;;;;;4965040;28;114583;-79
2022/12/05 08:16:40;;;;;;;91.03;47.00;;;2.60;75.50;;;;;;4949068;28;114871;-80
2022/12/05 08:19:09;;;;;;;101.82;48.58;;;2.60;75.40;;;;;;4965629;28;115103;-79
2022/12/05 08:21:36;;;;;;;91.82;46.17;;;2.60;75.40;;;;;;4948178;28;116579;-80
2022/12/05 08:24:05;;;;;;;90.75;44.90;;;2.70;75.30;;;;;;4967215;28;114418;-80
2022/12/05 08:26:33;;;;;;;86.93;45.55;;;2.70;75.20;;;;;;4929703;28;114514;-79
2022/12/05 08:29:06;;;;;;;90.05;48.00;;;2.70;75.20;;;;;;4972756;28;115394;-80
2022/12/05 08:31:38;;;;;;;92.55;50.85;;;2.70;75.10;;;;;;4966544;28;115498;-80
2022/12/05 08:34:05;;;;;;;101.28;51.20;;;2.80;75.00;;;;;;4965356;28;114538;-79
2022/12/05 08:36:32;;;;;;;93.88;51.08;;;2.80;75.00;;;;;;4967559;28;114644;-79
2022/12/05 08:39:02;;;;;;;87.32;47.10;;;2.80;75.00;;;;;;4965203;28;115350;-79
2022/12/05 08:41:30;;;;;;;82.95;42.22;;;2.90;74.90;;;;;;4963888;28;115981;-79
2022/12/05 08:44:01;;;;;;;81.15;41.08;;;2.90;74.80;;;;;;4964334;28;114553;-78
2022/12/05 08:46:30;;;;;;;100.93;52.90;;;2.90;74.70;;;;;;4932554;28;114694;-79
2022/12/05 08:48:57;;;;;;;101.03;53.38;;;2.90;74.60;;;;;;4947818;28;115155;-80
2022/12/05 08:51:24;;;;;;;103.78;56.05;;;2.90;74.60;;;;;;4963910;28;114651;-80
2022/12/05 08:53:52;;;;;;;101.03;54.92;;;2.90;74.60;;;;;;4965142;28;114431;-79
2022/12/05 08:56:22;;;;;;;101.97;53.33;;;3.00;74.70;;;;;;4964609;28;114397;-79
2022/12/05 08:58:54;;;;;;;93.85;47.50;;;3.00;74.80;;;;;;4963415;28;115127;-80
2022/12/05 09:01:30;;;;;;;85.65;42.55;;;3.10;74.80;;;;;;4917059;28;114852;-80
2022/12/05 09:04:03;;;;;;;100.15;48.92;;;3.10;74.80;;;;;;4964058;28;114429;-79
2022/12/05 09:06:31;;;;;;;97.20;47.95;;;3.10;74.70;;;;;;4944788;28;114483;-80
2022/12/05 09:09:00;;;;;;;100.45;51.17;;;3.10;74.70;;;;;;4962867;28;115370;-80
2022/12/05 09:11:30;;;;;;;88.57;46.90;;;3.20;74.80;;;;;;4946333;28;114650;-80
2022/12/05 09:13:58;;;;;;;92.40;46.67;;;3.20;74.80;;;;;;4969614;28;115288;-80
2022/12/05 09:16:33;;;;;;;93.85;48.67;;;3.30;74.80;;;;;;4984147;28;114336;-80
2022/12/05 09:19:14;;;;;;;91.50;46.55;;;3.40;74.70;;;;;;4983766;28;115154;-79
2022/12/05 09:21:42;;;;;;;98.68;47.25;;;3.40;74.70;;;;;;4927866;28;114784;-79
2022/12/05 09:24:11;;;;;;;95.28;48.92;;;3.50;74.70;;;;;;4965939;28;116807;-79
2022/12/05 09:26:39;;;;;;;93.63;48.75;;;3.50;74.70;;;;;;4964251;28;114423;-80
2022/12/05 09:29:06;;;;;;;87.78;45.78;;;3.60;74.70;;;;;;4949287;28;115067;-80
2022/12/05 09:31:41;;;;;;;87.20;43.35;;;3.60;74.60;;;;;;4968479;28;114643;-80
2022/12/05 09:34:09;;;;;;;92.45;44.90;;;3.60;74.70;;;;;;4974908;28;114304;-80
2022/12/05 09:36:50;;;;;;;89.45;44.90;;;3.60;74.80;;;;;;4967428;28;114332;-80
2022/12/05 09:39:24;;;;;;;88.47;43.47;;;3.60;75.00;;;;;;4962619;28;117755;-79
2022/12/05 09:42:03;;;;;;;79.38;41.83;;;3.70;75.00;;;;;;4967745;28;115819;-80
2022/12/05 09:44:57;;;;;;;86.47;46.03;;;3.70;75.20;;;;;;4962659;28;114390;-80
2022/12/05 09:47:41;;;;;;;78.57;42.08;;;3.90;75.30;;;;;;4963752;28;114455;-79
2022/12/05 09:50:22;;;;;;;75.32;41.28;;;4.00;75.20;;;;;;4963312;28;115141;-79
2022/12/05 09:53:24;;;;;;;39.92;23.48;;;4.10;75.40;;;;;;4962985;28;114703;-80
2022/12/05 09:56:05;;;;;;;48.92;26.95;;;4.20;75.70;;;;;;4946897;28;114788;-80
2022/12/05 09:58:37;;;;;;;44.42;24.83;;;4.40;75.60;;;;;;4947854;28;114661;-80
2022/12/05 10:01:37;;;;;;;39.85;23.92;;;4.60;75.60;;;;;;4963261;28;114999;-79
2022/12/05 10:04:29;;;;;;;45.03;26.45;;;4.70;75.50;;;;;;4969107;28;114835;-81
2022/12/05 10:07:23;;;;;;;51.85;29.08;;;4.90;75.40;;;;;;4984493;28;114802;-80
2022/12/05 10:10:18;;;;;;;78.25;41.75;;;5.00;75.20;;;;;;4986174;28;114397;-81
2022/12/05 10:13:04;;;;;;;85.95;47.05;;;5.20;74.80;;;;;;4934146;28;116929;-80
2022/12/05 10:15:53;;;;;;;88.63;49.33;;;5.20;74.40;;;;;;4964085;28;114686;-80
2022/12/05 10:18:54;;;;;;;95.78;53.20;;;5.10;74.20;;;;;;4950830;28;114843;-80
2022/12/05 10:21:40;;;;;;;102.07;54.50;;;5.10;73.90;;;;;;4982482;28;114793;-80
2022/12/05 10:24:45;;;;;;;94.85;52.10;;;5.00;74.00;;;;;;4965975;28;115065;-80
2022/12/05 10:27:35;;;;;;;90.97;49.97;;;5.10;74.00;;;;;;4965604;28;114588;-80
2022/12/05 10:30:23;;;;;;;90.72;49.47;;;5.10;74.10;;;;;;4966030;28;114823;-80
2022/12/05 10:33:12;;;;;;;91.60;49.27;;;5.10;74.10;;;;;;4966640;28;114411;-80
2022/12/05 10:35:40;;;;;;;88.40;46.85;;;5.00;74.20;;;;;;4965435;28;115071;-80
2022/12/05 10:38:16;;;;;;;88.93;47.25;;;5.00;74.10;;;;;;4964152;28;114604;-80
2022/12/05 10:41:09;;;;;;;94.43;46.72;;;5.10;74.10;;;;;;4965746;28;114801;-80
2022/12/05 10:43:38;;;;;;;91.25;48.88;;;5.00;74.10;;;;;;4949151;28;114534;-80
2022/12/05 10:46:06;;;;;;;89.10;46.88;;;5.00;74.20;;;;;;4948263;28;117839;-80
2022/12/05 10:48:40;;;;;;;85.38;45.13;;;5.00;74.40;;;;;;4965820;28;114589;-79
2022/12/05 10:51:21;;;;;;;91.72;45.88;;;5.00;74.60;;;;;;4970886;28;115705;-78
2022/12/05 10:53:49;;;;;;;87.05;42.00;;;5.00;74.70;;;;;;4965933;28;115288;-81
2022/12/05 10:56:44;;;;;;;88.05;43.90;;;5.00;74.70;;;;;;4965622;28;115527;-79
2022/12/05 10:59:17;;;;;;;79.32;40.05;;;5.10;74.50;;;;;;4966090;28;114659;-80
2022/12/05 11:01:50;;;;;;;81.85;42.13;;;4.90;74.20;;;;;;4950978;28;114610;-80
2022/12/05 11:04:26;;;;;;;84.03;41.80;;;4.80;74.00;;;;;;4949804;28;115009;-78
2022/12/05 11:07:02;;;;;;;78.93;40.60;;;4.80;74.10;;;;;;4949297;28;116469;-79
2022/12/05 11:09:34;;;;;;;82.60;40.17;;;4.70;74.00;;;;;;4965801;28;115364;-79
2022/12/05 11:12:21;;;;;;;80.35;39.28;;;4.70;73.90;;;;;;4950589;28;116181;-80
2022/12/05 11:14:59;;;;;;;84.90;42.15;;;4.60;74.00;;;;;;4968961;28;114774;-79
2022/12/05 11:17:36;;;;;;;79.88;40.30;;;4.60;74.30;;;;;;4983060;28;115094;-79
2022/12/05 11:20:15;;;;;;;75.90;37.15;;;4.60;74.20;;;;;;4951962;28;115431;-79
2022/12/05 11:22:42;;;;;;;78.32;39.03;;;4.60;74.30;;;;;;4968917;28;114455;-80
2022/12/05 11:25:31;;;;;;;75.85;38.60;;;4.60;74.30;;;;;;4981846;28;114665;-79
2022/12/05 11:28:16;;;;;;;78.00;40.95;;;4.60;74.40;;;;;;4966487;28;115188;-79
2022/12/05 11:31:23;;;;;;;81.20;42.85;;;4.70;74.40;;;;;;4966044;28;114722;-80
2022/12/05 11:34:19;;;;;;;78.45;39.03;;;4.60;74.50;;;;;;4962962;28;114680;-79
2022/12/05 11:36:52;;;;;;;74.57;38.08;;;4.70;74.50;;;;;;4946145;28;114480;-80
2022/12/05 11:39:19;;;;;;;78.28;41.20;;;4.70;74.50;;;;;;4946909;28;115193;-80
2022/12/05 11:42:25;;;;;;;69.20;36.30;;;4.70;74.50;;;;;;4968916;28;117575;-81
2022/12/05 11:45:14;;;;;;;74.85;39.00;;;4.70;74.40;;;;;;4970610;28;114963;-80
2022/12/05 11:48:03;;;;;;;80.63;43.97;;;4.70;74.50;;;;;;4965133;28;114838;-79
2022/12/05 11:50:59;;;;;;;77.63;39.60;;;4.70;74.50;;;;;;4961050;28;115868;-78
2022/12/05 11:54:10;;;;;;;82.25;43.25;;;4.70;74.70;;;;;;4960042;28;115066;-79
2022/12/05 11:57:19;;;;;;;85.85;42.75;;;4.70;74.70;;;;;;4936004;28;114514;-79
2022/12/05 12:00:29;;;;;;;83.80;44.20;;;4.70;74.70;;;;;;4979029;28;114461;-78
2022/12/05 12:03:24;;;;;;;79.00;40.53;;;4.70;74.90;;;;;;4979161;28;115132;-80
2022/12/05 12:06:48;;;;;;;75.07;39.63;;;4.70;74.90;;;;;;4964352;28;114839;-79
2022/12/05 12:09:28;;;;;;;81.35;42.75;;;4.80;75.00;;;;;;4962025;28;116279;-78
2022/12/05 12:12:52;;;;;;;87.15;47.13;;;4.80;74.90;;;;;;4968000;28;114631;-79
2022/12/05 12:15:30;;;;;;;79.40;40.67;;;4.80;74.90;;;;;;4942519;28;115550;-80
2022/12/05 12:18:15;;;;;;;86.07;42.50;;;4.80;75.00;;;;;;4964751;28;115200;-80
2022/12/05 12:21:19;;;;;;;75.78;38.55;;;4.80;75.10;;;;;;4948762;28;114419;-79
2022/12/05 12:24:36;;;;;;;77.15;38.83;;;4.90;75.00;;;;;;4976433;28;115904;-80
2022/12/05 12:27:55;;;;;;;70.53;36.63;;;5.00;74.80;;;;;;4968839;28;115518;-80
2022/12/05 12:30:54;;;;;;;73.53;39.30;;;4.90;74.70;;;;;;4892778;28;114892;-80
2022/12/05 12:33:47;;;;;;;76.65;38.47;;;4.90;75.00;;;;;;4962367;28;116166;-80
2022/12/05 12:36:41;;;;;;;92.43;48.83;;;4.90;75.00;;;;;;4967345;28;114520;-80
2022/12/05 12:39:28;;;;;;;88.45;46.83;;;4.90;75.10;;;;;;4966150;28;115213;-81
2022/12/05 12:43:01;;;;;;;96.47;51.03;;;5.00;75.10;;;;;;4963065;28;114584;-80
2022/12/05 12:46:13;;;;;;;87.90;47.50;;;5.10;74.90;;;;;;4903319;28;115503;-81
2022/12/05 12:49:21;;;;;;;97.65;51.92;;;5.10;74.80;;;;;;4953857;28;114539;-80
2022/12/05 12:52:15;;;;;;;88.20;48.22;;;5.10;74.80;;;;;;4965298;28;116398;-80
2022/12/05 12:55:13;;;;;;;84.72;45.97;;;5.10;74.90;;;;;;4954749;28;114776;-80
2022/12/05 12:58:16;;;;;;;89.85;46.25;;;5.20;74.80;;;;;;4964490;28;115356;-80
2022/12/05 13:01:16;;;;;;;88.40;46.15;;;5.10;74.60;;;;;;4970732;28;114369;-80
2022/12/05 13:04:32;;;;;;;84.28;42.72;;;5.10;74.60;;;;;;4961952;28;115098;-80
2022/12/05 13:07:28;;;;;;;82.70;45.60;;;5.10;74.70;;;;;;4945926;28;114769;-80
2022/12/05 13:10:13;;;;;;;86.00;44.83;;;5.10;74.90;;;;;;4965856;28;114552;-80
2022/12/05 13:12:41;;;;;;;92.13;47.88;;;5.10;74.90;;;;;;4964254;28;114866;-80
2022/12/05 13:15:46;;;;;;;89.68;49.13;;;5.10;74.80;;;;;;4972527;28;118717;-79
2022/12/05 13:18:24;;;;;;;98.22;52.78;;;5.20;74.80;;;;;;4952625;28;115677;-79
2022/12/05 13:20:56;;;;;;;97.97;55.70;;;5.20;74.90;;;;;;4980065;28;114993;-80
2022/12/05 13:23:51;;;;;;;89.40;51.67;;;5.20;75.00;;;;;;4952700;28;114631;-80